createdAt,value
2022-12-03T00:00:13.532Z,14.88
2022-12-03T00:02:40.887Z,15.63
2022-12-03T00:05:07.834Z,15.52
2022-12-03T00:07:35.200Z,16.17
2022-12-03T00:10:01.827Z,17.60
2022-12-03T00:12:28.391Z,15.80
2022-12-03T00:14:56.256Z,17.00
2022-12-03T00:17:23.007Z,15.55
2022-12-03T00:19:49.531Z,15.93
2022-12-03T00:22:15.958Z,15.75
2022-12-03T00:24:42.448Z,17.08
2022-12-03T00:27:08.917Z,16.98
2022-12-03T00:29:35.405Z,16.23
2022-12-03T00:32:01.876Z,17.38
2022-12-03T00:34:28.538Z,14.88
2022-12-03T00:36:55.028Z,18.05
2022-12-03T00:39:21.523Z,17.35
2022-12-03T00:41:48.031Z,18.52
2022-12-03T00:44:14.567Z,17.73
2022-12-03T00:46:41.215Z,19.13
2022-12-03T00:49:07.836Z,18.52
2022-12-03T00:51:35.715Z,19.33
2022-12-03T00:54:02.301Z,19.65
2022-12-03T00:56:28.815Z,18.38
2022-12-03T00:58:55.333Z,18.27
2022-12-03T01:01:21.897Z,20.85
2022-12-03T01:03:48.447Z,19.52
2022-12-03T01:06:14.921Z,20.30
2022-12-03T01:08:41.491Z,19.98
2022-12-03T01:11:28.155Z,19.45
2022-12-03T01:13:54.624Z,20.42
2022-12-03T01:16:21.276Z,22.73
2022-12-03T01:18:47.877Z,20.20
2022-12-03T01:21:14.312Z,24.38
2022-12-03T01:23:42.786Z,24.25
2022-12-03T01:26:09.274Z,22.77
2022-12-03T01:28:35.819Z,22.42
2022-12-03T01:31:22.702Z,22.05
2022-12-03T01:33:49.327Z,23.98
2022-12-03T01:36:15.729Z,23.15
2022-12-03T01:38:42.180Z,22.55
2022-12-03T01:41:11.855Z,23.27
2022-12-03T01:43:38.781Z,23.77
2022-12-03T01:46:05.444Z,25.17
2022-12-03T01:48:35.294Z,23.70
2022-12-03T01:51:02.061Z,25.25
2022-12-03T01:53:28.519Z,24.88
2022-12-03T01:55:55.193Z,24.30
2022-12-03T01:58:26.542Z,22.02
2022-12-03T02:00:53.459Z,23.25
2022-12-03T02:03:23.942Z,25.30
2022-12-03T02:05:50.452Z,22.98
2022-12-03T02:08:49.242Z,25.27
2022-12-03T02:11:20.705Z,26.15
2022-12-03T02:13:48.791Z,25.27
2022-12-03T02:16:15.312Z,27.05
2022-12-03T02:18:43.314Z,26.38
2022-12-03T02:21:19.960Z,25.50
2022-12-03T02:24:06.575Z,24.13
2022-12-03T02:26:33.393Z,24.95
2022-12-03T02:29:00.013Z,26.38
2022-12-03T02:31:26.565Z,24.05
2022-12-03T02:33:53.251Z,25.90
2022-12-03T02:36:20.444Z,26.30
2022-12-03T02:38:48.181Z,25.05
2022-12-03T02:41:37.020Z,27.02
2022-12-03T02:44:05.151Z,26.35
2022-12-03T02:46:32.921Z,27.42
2022-12-03T02:49:00.089Z,27.10
2022-12-03T02:51:26.891Z,28.63
2022-12-03T02:53:54.070Z,26.00
2022-12-03T02:56:23.124Z,28.00
2022-12-03T02:58:51.758Z,29.27
2022-12-03T03:01:18.361Z,29.15
2022-12-03T03:03:45.830Z,29.58
2022-12-03T03:06:12.664Z,28.73
2022-12-03T03:08:39.277Z,29.80
2022-12-03T03:11:08.254Z,31.42
2022-12-03T03:13:35.488Z,28.52
2022-12-03T03:16:05.012Z,30.20
2022-12-03T03:18:32.527Z,29.40
2022-12-03T03:20:59.151Z,32.45
2022-12-03T03:23:25.786Z,28.40
2022-12-03T03:26:08.737Z,28.58
2022-12-03T03:28:38.568Z,31.10
2022-12-03T03:31:07.074Z,33.30
2022-12-03T03:33:33.819Z,30.23
2022-12-03T03:36:00.912Z,36.03
2022-12-03T03:38:28.476Z,33.65
2022-12-03T03:40:56.313Z,32.55
2022-12-03T03:43:23.489Z,34.60
2022-12-03T03:45:51.156Z,32.08
2022-12-03T03:48:18.117Z,34.13
2022-12-03T03:50:44.931Z,33.13
2022-12-03T03:53:12.046Z,35.30
2022-12-03T03:55:39.016Z,34.45
2022-12-03T03:58:05.570Z,34.42
2022-12-03T04:00:32.221Z,32.67
2022-12-03T04:02:58.664Z,32.35
2022-12-03T04:05:25.457Z,32.63
2022-12-03T04:07:52.187Z,37.05
2022-12-03T04:10:37.775Z,34.60
2022-12-03T04:13:05.408Z,34.58
2022-12-03T04:15:32.184Z,34.65
2022-12-03T04:18:17.322Z,35.20
2022-12-03T04:20:43.820Z,33.75
2022-12-03T04:23:10.259Z,31.85
2022-12-03T04:25:55.867Z,33.58
2022-12-03T04:28:40.748Z,37.53
2022-12-03T04:31:26.015Z,34.25
2022-12-03T04:34:11.174Z,34.40
2022-12-03T04:36:38.113Z,32.55
2022-12-03T04:39:04.724Z,34.15
2022-12-03T04:41:31.160Z,33.58
2022-12-03T04:44:16.555Z,35.42
2022-12-03T04:46:43.095Z,36.65
2022-12-03T04:49:09.543Z,33.92
2022-12-03T04:51:38.118Z,34.78
2022-12-03T04:54:04.733Z,36.45
2022-12-03T04:56:31.160Z,37.67
2022-12-03T04:58:57.614Z,34.05
2022-12-03T05:01:24.177Z,34.28
2022-12-03T05:03:50.863Z,35.25
2022-12-03T05:06:17.331Z,35.63
2022-12-03T05:08:43.763Z,35.13
2022-12-03T05:11:10.174Z,35.00
2022-12-03T05:13:36.709Z,37.50
2022-12-03T05:16:03.308Z,36.58
2022-12-03T05:18:29.929Z,35.95
2022-12-03T05:20:56.411Z,34.97
2022-12-03T05:23:22.884Z,38.13
2022-12-03T05:25:49.648Z,38.70
2022-12-03T05:28:16.093Z,41.63
2022-12-03T05:30:43.122Z,39.80
2022-12-03T05:33:09.653Z,37.58
2022-12-03T05:35:36.128Z,40.67
2022-12-03T05:38:02.567Z,39.58
2022-12-03T05:40:29.026Z,41.05
2022-12-03T05:42:56.874Z,38.50
2022-12-03T05:45:25.114Z,37.95
2022-12-03T05:47:52.956Z,40.38
2022-12-03T05:50:20.987Z,40.63
2022-12-03T05:52:47.518Z,40.80
2022-12-03T05:55:14.903Z,37.33
2022-12-03T05:57:41.374Z,37.53
2022-12-03T06:00:12.756Z,38.95
2022-12-03T06:02:39.204Z,39.65
2022-12-03T06:05:06.390Z,41.08
2022-12-03T06:07:32.835Z,41.40
2022-12-03T06:09:59.257Z,37.15
2022-12-03T06:12:25.683Z,38.15
2022-12-03T06:14:52.801Z,39.40
2022-12-03T06:17:19.532Z,36.97
2022-12-03T06:19:46.017Z,36.33
2022-12-03T06:22:13.561Z,39.67
2022-12-03T06:24:40.015Z,36.42
2022-12-03T06:27:06.498Z,38.78
2022-12-03T06:29:32.988Z,38.15
2022-12-03T06:31:59.466Z,38.00
2022-12-03T06:34:25.939Z,37.30
2022-12-03T06:36:52.430Z,34.28
2022-12-03T06:39:20.852Z,37.57
2022-12-03T06:41:47.278Z,33.40
2022-12-03T06:44:14.020Z,34.55
2022-12-03T06:46:40.694Z,36.88
2022-12-03T06:49:09.169Z,39.92
2022-12-03T06:51:36.246Z,35.07
2022-12-03T06:54:03.056Z,35.33
2022-12-03T06:56:35.009Z,35.42
2022-12-03T06:59:03.462Z,31.80
2022-12-03T07:01:30.046Z,36.60
2022-12-03T07:03:56.649Z,36.17
2022-12-03T07:06:24.923Z,34.90
2022-12-03T07:08:51.443Z,34.35
2022-12-03T07:11:33.152Z,36.08
2022-12-03T07:14:04.971Z,35.15
2022-12-03T07:16:32.268Z,37.90
2022-12-03T07:18:58.805Z,33.70
2022-12-03T07:21:25.298Z,34.35
2022-12-03T07:23:51.901Z,36.50
2022-12-03T07:26:18.398Z,35.33
2022-12-03T07:28:44.898Z,33.28
2022-12-03T07:31:11.414Z,30.88
2022-12-03T07:33:37.937Z,32.92
2022-12-03T07:36:04.434Z,31.77
2022-12-03T07:38:30.952Z,31.92
2022-12-03T07:40:57.428Z,31.55
2022-12-03T07:43:23.866Z,32.40
2022-12-03T07:45:50.401Z,30.85
2022-12-03T07:48:16.889Z,28.63
2022-12-03T07:50:43.354Z,33.53
2022-12-03T07:53:09.829Z,32.10
2022-12-03T07:55:36.210Z,33.55
2022-12-03T07:58:02.747Z,32.65
2022-12-03T08:00:29.317Z,34.97
2022-12-03T08:02:55.823Z,31.67
2022-12-03T08:05:22.259Z,31.15
2022-12-03T08:07:49.028Z,32.25
2022-12-03T08:10:15.670Z,30.77
2022-12-03T08:12:42.108Z,30.10
2022-12-03T08:15:20.419Z,37.20
2022-12-03T08:17:58.711Z,29.98
2022-12-03T08:20:28.091Z,31.80
2022-12-03T08:25:24.419Z,27.52
2022-12-03T08:27:52.424Z,29.65
2022-12-03T08:30:19.353Z,33.03
2022-12-03T08:32:47.294Z,29.40
2022-12-03T08:35:25.759Z,29.35
2022-12-03T08:38:06.154Z,30.50
2022-12-03T08:40:39.423Z,27.17
2022-12-03T08:43:27.496Z,29.48
2022-12-03T08:45:55.146Z,26.25
2022-12-03T08:48:28.454Z,29.58
2022-12-03T08:50:56.786Z,29.70
2022-12-03T08:53:26.126Z,30.30
2022-12-03T08:58:41.601Z,28.08
2022-12-03T09:01:12.257Z,28.63
2022-12-03T09:04:19.377Z,27.50
2022-12-03T09:06:45.822Z,30.55
2022-12-03T09:09:12.325Z,29.60
2022-12-03T09:11:39.382Z,28.05
2022-12-03T09:14:05.806Z,29.40
2022-12-03T09:16:32.390Z,29.80
2022-12-03T09:18:58.850Z,30.88
2022-12-03T09:21:25.338Z,32.03
2022-12-03T09:23:51.800Z,31.83
2022-12-03T09:26:18.213Z,31.73
2022-12-03T09:28:46.151Z,30.42
2022-12-03T09:31:12.561Z,29.90
2022-12-03T09:33:39.019Z,32.95
2022-12-03T09:36:06.393Z,31.73
2022-12-03T09:38:32.806Z,31.33
2022-12-03T09:40:59.775Z,31.48
2022-12-03T09:43:43.361Z,33.53
2022-12-03T09:46:18.188Z,36.22
2022-12-03T09:48:44.753Z,32.90
2022-12-03T09:51:11.543Z,35.03
2022-12-03T09:53:41.325Z,32.92
2022-12-03T09:58:37.076Z,30.67
2022-12-03T10:01:11.304Z,32.83
2022-12-03T10:03:38.779Z,34.63
2022-12-03T10:06:05.370Z,31.88
2022-12-03T10:08:32.625Z,33.13
2022-12-03T10:11:00.202Z,34.60
2022-12-03T10:13:29.345Z,34.30
2022-12-03T10:15:57.845Z,33.22
2022-12-03T10:18:30.564Z,33.73
2022-12-03T10:20:57.650Z,35.85
2022-12-03T10:23:30.138Z,32.33
2022-12-03T10:25:59.174Z,37.17
2022-12-03T10:28:40.103Z,34.47
2022-12-03T10:31:08.960Z,33.22
2022-12-03T10:33:41.687Z,34.00
2022-12-03T10:36:21.477Z,35.10
2022-12-03T10:39:15.763Z,37.53
2022-12-03T10:41:44.316Z,34.05
2022-12-03T10:44:16.455Z,37.03
2022-12-03T10:46:44.004Z,34.80
2022-12-03T10:49:16.080Z,37.20
2022-12-03T10:51:43.201Z,35.10
2022-12-03T10:54:21.349Z,37.42
2022-12-03T10:56:48.824Z,36.60
2022-12-03T10:59:19.373Z,35.95
2022-12-03T11:01:46.068Z,34.38
2022-12-03T11:04:22.432Z,36.95
2022-12-03T11:06:49.898Z,37.88
2022-12-03T11:09:27.230Z,36.75
2022-12-03T11:11:53.974Z,35.50
2022-12-03T11:14:54.917Z,34.35
2022-12-03T11:17:50.299Z,36.83
2022-12-03T11:20:25.527Z,38.67
2022-12-03T11:22:53.373Z,35.58
2022-12-03T11:25:26.007Z,36.42
2022-12-03T11:28:14.320Z,39.80
2022-12-03T11:30:50.000Z,35.30
2022-12-03T11:33:40.837Z,35.75
2022-12-03T11:38:36.827Z,33.10
2022-12-03T11:41:23.740Z,37.67
2022-12-03T11:43:53.397Z,38.40
2022-12-03T11:46:40.833Z,37.75
2022-12-03T11:49:25.888Z,34.00
2022-12-03T11:51:52.532Z,37.25
2022-12-03T11:54:21.922Z,34.88
2022-12-03T12:01:44.600Z,38.17
2022-12-03T12:04:34.056Z,38.00
2022-12-03T12:07:01.256Z,38.20
2022-12-03T12:09:56.099Z,36.95
2022-12-03T12:12:31.125Z,38.13
2022-12-03T12:14:58.737Z,39.15
2022-12-03T12:17:35.956Z,36.47
2022-12-03T12:20:24.596Z,38.45
2022-12-03T12:22:52.684Z,37.47
2022-12-03T12:25:37.929Z,36.83
2022-12-03T12:28:04.481Z,37.25
2022-12-03T12:30:30.959Z,37.55
2022-12-03T12:33:16.177Z,38.33
2022-12-03T12:35:42.674Z,40.55
2022-12-03T12:38:10.932Z,40.10
2022-12-03T12:40:39.323Z,38.47
2022-12-03T12:43:21.907Z,37.67
2022-12-03T12:45:51.349Z,38.97
2022-12-03T12:48:25.497Z,37.95
2022-12-03T12:50:59.495Z,37.05
2022-12-03T12:53:28.876Z,36.67
2022-12-03T12:58:23.682Z,37.97
2022-12-03T13:00:54.985Z,39.20
2022-12-03T13:03:25.040Z,38.67
2022-12-03T13:05:52.649Z,38.50
2022-12-03T13:08:26.621Z,36.10
2022-12-03T13:10:55.072Z,38.65
2022-12-03T13:13:43.977Z,34.77
2022-12-03T13:18:55.952Z,38.30
2022-12-03T13:21:23.775Z,37.20
2022-12-03T13:23:52.954Z,36.22
2022-12-03T13:26:36.137Z,38.55
2022-12-03T13:29:14.711Z,40.30
2022-12-03T13:31:44.153Z,38.58
2022-12-03T13:34:21.139Z,36.92
2022-12-03T13:36:55.451Z,43.80
2022-12-03T13:39:34.962Z,39.20
2022-12-03T13:42:33.309Z,40.58
2022-12-03T13:45:01.641Z,37.07
2022-12-03T13:47:28.366Z,36.03
2022-12-03T13:49:57.521Z,37.38
2022-12-03T13:54:53.480Z,40.42
2022-12-03T13:57:21.598Z,38.25
2022-12-03T13:59:48.078Z,39.22
2022-12-03T14:02:14.617Z,38.42
2022-12-03T14:04:41.615Z,36.60
2022-12-03T14:07:08.082Z,37.30
2022-12-03T14:09:34.553Z,35.08
2022-12-03T14:12:19.625Z,37.15
2022-12-03T14:14:46.050Z,36.80
2022-12-03T14:17:12.665Z,33.58
2022-12-03T14:19:39.179Z,39.08
2022-12-03T14:22:07.862Z,35.38
2022-12-03T14:24:34.292Z,34.30
2022-12-03T14:27:00.817Z,35.85
2022-12-03T14:29:27.440Z,39.50
2022-12-03T14:31:53.927Z,38.08
2022-12-03T14:34:20.863Z,38.95
2022-12-03T14:36:47.406Z,36.08
2022-12-03T14:39:13.798Z,34.35
2022-12-03T14:41:58.770Z,36.13
2022-12-03T14:44:25.272Z,37.15
2022-12-03T14:46:56.558Z,34.55
2022-12-03T14:49:23.670Z,36.70
2022-12-03T14:51:50.125Z,34.05
2022-12-03T14:54:16.594Z,35.70
2022-12-03T14:56:43.010Z,35.67
2022-12-03T14:59:09.530Z,37.25
2022-12-03T15:01:37.090Z,36.30
2022-12-03T15:04:03.618Z,34.67
2022-12-03T15:06:30.095Z,35.22
2022-12-03T15:08:56.540Z,36.47
2022-12-03T15:11:23.196Z,34.65
2022-12-03T15:13:49.655Z,36.55
2022-12-03T15:16:16.135Z,34.00
2022-12-03T15:18:42.584Z,35.35
2022-12-03T15:21:09.100Z,37.33
2022-12-03T15:23:35.586Z,37.90
2022-12-03T15:26:03.260Z,33.80
2022-12-03T15:28:29.978Z,36.60
2022-12-03T15:30:56.477Z,36.78
2022-12-03T15:33:22.950Z,35.25
2022-12-03T15:35:49.434Z,36.35
2022-12-03T15:38:15.862Z,35.67
2022-12-03T15:40:42.326Z,37.25
2022-12-03T15:43:09.105Z,36.67
2022-12-03T15:45:35.738Z,38.35
2022-12-03T15:48:02.671Z,36.13
2022-12-03T15:50:29.145Z,38.08
2022-12-03T15:52:55.880Z,40.25
2022-12-03T15:55:22.457Z,34.13
2022-12-03T15:57:49.207Z,35.40
2022-12-03T16:00:16.732Z,36.17
2022-12-03T16:02:49.155Z,33.35
2022-12-03T16:05:18.957Z,33.53
2022-12-03T16:07:45.573Z,34.55
2022-12-03T16:10:12.246Z,33.08
2022-12-03T16:12:38.662Z,34.63
2022-12-03T16:15:05.687Z,38.70
2022-12-03T16:17:32.213Z,39.75
2022-12-03T16:19:58.681Z,34.28
2022-12-03T16:22:25.115Z,35.10
2022-12-03T16:24:51.576Z,37.03
2022-12-03T16:27:21.591Z,32.80
2022-12-03T16:29:50.529Z,38.45
2022-12-03T16:32:16.950Z,40.03
2022-12-03T16:34:43.417Z,37.00
2022-12-03T16:37:11.383Z,41.35
2022-12-03T16:39:47.078Z,40.53
2022-12-03T16:42:17.179Z,39.15
2022-12-03T16:45:13.397Z,35.10
2022-12-03T16:47:39.887Z,33.42
2022-12-03T16:50:09.137Z,37.92
2022-12-03T16:52:37.194Z,37.25
2022-12-03T16:55:03.867Z,32.80
2022-12-03T16:57:33.697Z,34.15
2022-12-03T17:00:00.809Z,36.28
2022-12-03T17:02:27.734Z,35.65
2022-12-03T17:04:54.472Z,34.75
2022-12-03T17:07:20.958Z,35.95
2022-12-03T17:09:47.585Z,35.22
2022-12-03T17:12:13.983Z,35.13
2022-12-03T17:14:40.441Z,34.40
2022-12-03T17:17:06.936Z,37.08
2022-12-03T17:19:33.349Z,35.83
2022-12-03T17:21:59.774Z,36.45
2022-12-03T17:24:26.223Z,34.15
2022-12-03T17:26:52.935Z,36.22
2022-12-03T17:29:19.353Z,37.13
2022-12-03T17:31:45.863Z,34.75
2022-12-03T17:34:12.391Z,33.97
2022-12-03T17:36:39.065Z,35.00
2022-12-03T17:39:05.495Z,35.75
2022-12-03T17:41:31.904Z,35.38
2022-12-03T17:43:58.403Z,33.53
2022-12-03T17:46:25.009Z,32.88
2022-12-03T17:48:51.461Z,40.40
2022-12-03T17:51:20.682Z,32.35
2022-12-03T17:53:47.183Z,30.98
2022-12-03T17:56:13.663Z,32.60
2022-12-03T17:58:40.125Z,33.53
2022-12-03T18:01:08.689Z,33.10
2022-12-03T18:03:35.197Z,36.25
2022-12-03T18:06:02.103Z,32.58
2022-12-03T18:08:28.571Z,34.08
2022-12-03T18:10:55.020Z,38.30
2022-12-03T18:13:21.472Z,38.95
2022-12-03T18:15:48.049Z,32.67
2022-12-03T18:18:14.747Z,31.85
2022-12-03T18:20:41.217Z,35.00
2022-12-03T18:23:07.822Z,32.25
2022-12-03T18:25:34.269Z,34.97
2022-12-03T18:28:00.825Z,36.78
2022-12-03T18:30:27.271Z,31.88
2022-12-03T18:32:53.744Z,31.17
2022-12-03T18:35:20.620Z,34.25
2022-12-03T18:37:49.281Z,33.10
2022-12-03T18:40:23.661Z,33.05
2022-12-03T18:42:50.415Z,32.58
2022-12-03T18:45:17.003Z,32.78
2022-12-03T18:47:44.296Z,34.03
2022-12-03T18:50:11.656Z,31.58
2022-12-03T18:52:38.622Z,34.10
2022-12-03T18:55:06.228Z,32.30
2022-12-03T18:57:32.742Z,36.53
2022-12-03T18:59:59.303Z,31.33
2022-12-03T19:02:54.353Z,37.55
2022-12-03T19:05:12.202Z,35.58
2022-12-03T19:07:38.681Z,32.83
2022-12-03T19:10:05.533Z,34.72
2022-12-03T19:12:32.958Z,36.50
2022-12-03T19:14:59.514Z,37.00
2022-12-03T19:17:26.998Z,49.78
2022-12-03T19:19:53.695Z,33.38
2022-12-03T19:22:20.380Z,30.77
2022-12-03T19:24:46.818Z,32.17
2022-12-03T19:27:13.367Z,29.92
2022-12-03T19:29:39.923Z,30.45
2022-12-03T19:32:06.496Z,29.05
2022-12-03T19:34:33.300Z,31.85
2022-12-03T19:36:59.767Z,31.27
2022-12-03T19:39:26.217Z,31.67
2022-12-03T19:41:52.621Z,31.10
2022-12-03T19:44:19.156Z,30.98
2022-12-03T19:46:45.666Z,30.23
2022-12-03T19:49:12.137Z,28.63
2022-12-03T19:51:38.551Z,28.40
2022-12-03T19:54:06.648Z,27.92
2022-12-03T19:56:33.563Z,30.25
2022-12-03T19:58:59.998Z,26.20
2022-12-03T20:01:29.275Z,27.95
2022-12-03T20:06:25.087Z,31.42
2022-12-03T20:08:58.513Z,32.55
2022-12-03T20:11:30.264Z,31.02
2022-12-03T20:13:59.455Z,32.35
2022-12-03T20:16:26.574Z,27.48
2022-12-03T20:18:57.088Z,29.95
2022-12-03T20:21:23.723Z,26.95
2022-12-03T20:23:50.129Z,25.08
2022-12-03T20:26:18.635Z,24.20
2022-12-03T20:28:45.819Z,22.38
2022-12-03T20:31:15.005Z,23.50
2022-12-03T20:33:43.475Z,22.92
2022-12-03T20:36:11.133Z,23.77
2022-12-03T20:38:37.744Z,19.98
2022-12-03T20:41:06.303Z,20.48
2022-12-03T20:43:33.081Z,18.42
2022-12-03T20:46:07.718Z,16.73
2022-12-03T20:48:34.543Z,13.48
2022-12-03T20:51:03.764Z,16.13
2022-12-03T20:53:30.243Z,14.18
2022-12-03T20:55:57.724Z,14.18
2022-12-03T20:58:24.213Z,13.55
2022-12-03T21:00:51.050Z,12.05
2022-12-03T21:03:17.587Z,13.48
2022-12-03T21:05:44.219Z,14.40
2022-12-03T21:08:11.558Z,15.70
2022-12-03T21:10:45.399Z,15.20
2022-12-03T21:13:16.079Z,13.32
2022-12-03T21:15:43.463Z,15.10
2022-12-03T21:18:12.013Z,12.50
2022-12-03T21:20:42.476Z,15.13
2022-12-03T21:23:09.280Z,12.27
2022-12-03T21:25:36.863Z,12.82
2022-12-03T21:28:04.779Z,12.18
2022-12-03T21:30:31.874Z,12.75
2022-12-03T21:32:58.407Z,11.73
2022-12-03T21:35:24.929Z,13.07
2022-12-03T21:37:51.674Z,12.73
2022-12-03T21:40:19.844Z,12.38
2022-12-03T21:42:46.330Z,11.35
2022-12-03T21:45:13.337Z,11.30
2022-12-03T21:47:40.085Z,12.75
2022-12-03T21:50:08.420Z,10.70
2022-12-03T21:52:35.389Z,11.20
2022-12-03T21:55:01.809Z,11.57
2022-12-03T21:57:28.289Z,10.55
2022-12-03T21:59:57.917Z,11.60
2022-12-03T22:02:24.889Z,11.52
2022-12-03T22:04:51.543Z,12.38
2022-12-03T22:07:18.597Z,11.75
2022-12-03T22:09:45.262Z,11.40
2022-12-03T22:12:11.711Z,12.73
2022-12-03T22:14:38.134Z,13.40
2022-12-03T22:17:04.621Z,12.70
2022-12-03T22:19:31.111Z,12.30
2022-12-03T22:21:57.526Z,12.77
2022-12-03T22:24:24.059Z,12.10
2022-12-03T22:26:52.116Z,13.40
2022-12-03T22:29:18.578Z,12.95
2022-12-03T22:31:45.109Z,12.73
2022-12-03T22:34:11.566Z,13.20
2022-12-03T22:36:38.031Z,12.73
2022-12-03T22:39:04.636Z,13.63
2022-12-03T22:41:31.095Z,12.43
2022-12-03T22:43:57.466Z,12.13
2022-12-03T22:46:23.980Z,13.45
2022-12-03T22:48:50.465Z,10.63
2022-12-03T22:51:21.590Z,12.52
2022-12-03T22:53:48.388Z,11.02
2022-12-03T22:56:15.891Z,11.95
2022-12-03T22:58:44.380Z,11.07
2022-12-03T23:01:22.543Z,11.70
2022-12-03T23:03:49.288Z,10.65
2022-12-03T23:06:16.224Z,11.57
2022-12-03T23:31:14.294Z,10.90
2022-12-03T23:33:41.130Z,12.50
2022-12-03T23:39:24.658Z,13.40
2022-12-03T23:42:04.653Z,12.48
